createdAt,value
2023-08-20T00:02:06.073Z,23.2
2023-08-20T00:05:06.064Z,23.2
2023-08-20T00:08:06.061Z,23.2
2023-08-20T00:11:06.067Z,23.1
2023-08-20T00:14:06.067Z,23.1
2023-08-20T00:17:06.065Z,23.1
2023-08-20T00:20:06.062Z,23.1
2023-08-20T00:23:06.064Z,23.1
2023-08-20T00:26:06.093Z,23
2023-08-20T00:29:06.056Z,23
2023-08-20T00:32:06.067Z,23
2023-08-20T00:35:06.052Z,23
2023-08-20T00:38:06.056Z,22.9
2023-08-20T00:41:06.057Z,22.9
2023-08-20T00:44:06.053Z,22.9
2023-08-20T00:47:06.055Z,22.8
2023-08-20T00:50:06.044Z,22.8
2023-08-20T00:53:06.044Z,22.8
2023-08-20T00:56:06.050Z,22.8
2023-08-20T00:59:06.042Z,22.7
2023-08-20T01:02:06.042Z,22.7
2023-08-20T01:05:06.045Z,22.7
2023-08-20T01:08:06.046Z,22.7
2023-08-20T01:11:06.037Z,22.6
2023-08-20T01:14:06.035Z,22.6
2023-08-20T01:17:06.037Z,22.6
2023-08-20T01:23:06.033Z,22.5
2023-08-20T01:26:06.028Z,22.5
2023-08-20T01:29:06.026Z,22.4
2023-08-20T01:32:06.027Z,22.4
2023-08-20T01:35:06.026Z,22.4
2023-08-20T01:38:06.032Z,22.4
2023-08-20T01:41:06.024Z,22.4
2023-08-20T01:44:06.037Z,22.3
2023-08-20T01:47:06.017Z,22.3
2023-08-20T01:50:07.278Z,22.3
2023-08-20T01:53:06.019Z,22.3
2023-08-20T01:56:06.019Z,22.3
2023-08-20T01:59:06.018Z,22.2
2023-08-20T02:02:06.055Z,22.2
2023-08-20T02:05:06.025Z,22.2
2023-08-20T02:08:06.013Z,22.2
2023-08-20T02:11:06.019Z,22.2
2023-08-20T02:14:06.006Z,22.2
2023-08-20T02:17:06.015Z,22.2
2023-08-20T02:20:06.005Z,22.2
2023-08-20T02:23:06.004Z,22.2
2023-08-20T02:26:06.010Z,22.2
2023-08-20T02:29:06.011Z,22.2
2023-08-20T02:32:06.000Z,22.1
2023-08-20T02:35:06.011Z,22.1
2023-08-20T02:38:05.998Z,22.1
2023-08-20T02:41:05.998Z,22.1
2023-08-20T02:44:06.004Z,22
2023-08-20T02:47:06.004Z,22
2023-08-20T02:50:05.994Z,22
2023-08-20T02:53:06.008Z,22
2023-08-20T02:56:06.008Z,21.9
2023-08-20T02:59:05.999Z,21.9
2023-08-20T03:02:05.992Z,21.9
2023-08-20T03:05:05.997Z,21.9
2023-08-20T03:08:06.004Z,21.8
2023-08-20T03:11:05.989Z,21.8
2023-08-20T03:14:05.995Z,21.8
2023-08-20T03:17:06.006Z,21.8
2023-08-20T03:20:05.995Z,21.8
2023-08-20T03:23:06.006Z,21.8
2023-08-20T03:26:05.992Z,21.7
2023-08-20T03:29:05.991Z,21.7
2023-08-20T03:32:05.990Z,21.7
2023-08-20T03:35:05.997Z,21.7
2023-08-20T03:38:05.994Z,21.7
2023-08-20T03:41:05.987Z,21.7
2023-08-20T03:44:05.994Z,21.7
2023-08-20T03:47:08.575Z,21.6
2023-08-20T03:50:05.989Z,21.6
2023-08-20T03:53:05.991Z,21.6
2023-08-20T03:56:05.983Z,21.6
2023-08-20T03:59:05.981Z,21.6
2023-08-20T04:02:05.991Z,21.6
2023-08-20T04:05:05.987Z,21.6
2023-08-20T04:08:05.994Z,21.6
2023-08-20T04:11:05.984Z,21.6
2023-08-20T04:14:05.989Z,21.6
2023-08-20T04:17:05.990Z,21.6
2023-08-20T04:20:06.470Z,21.6
2023-08-20T04:23:05.966Z,21.7
2023-08-20T04:26:05.978Z,21.7
2023-08-20T04:29:05.980Z,21.7
2023-08-20T04:32:05.983Z,21.7
2023-08-20T04:35:05.985Z,21.7
2023-08-20T04:38:05.980Z,21.7
2023-08-20T04:41:05.992Z,21.7
2023-08-20T04:47:05.978Z,21.7
2023-08-20T04:50:05.973Z,21.8
2023-08-20T04:53:05.974Z,21.8
2023-08-20T04:56:05.969Z,21.8
2023-08-20T04:59:05.969Z,21.9
2023-08-20T05:02:05.973Z,21.9
2023-08-20T05:05:05.973Z,21.9
2023-08-20T05:08:05.976Z,22
2023-08-20T05:11:05.970Z,22
2023-08-20T05:14:05.964Z,22
2023-08-20T05:17:05.974Z,22
2023-08-20T05:20:05.960Z,22
2023-08-20T05:23:05.960Z,22.1
2023-08-20T05:26:05.984Z,22.1
2023-08-20T05:29:05.953Z,22.1
2023-08-20T05:32:05.963Z,22.1
2023-08-20T05:35:07.811Z,22.1
2023-08-20T05:38:05.955Z,22.1
2023-08-20T05:41:05.961Z,22.1
2023-08-20T05:44:05.967Z,22.2
2023-08-20T05:47:05.970Z,22.2
2023-08-20T05:50:05.961Z,22.3
2023-08-20T05:53:05.947Z,22.4
2023-08-20T05:56:05.964Z,22.4
2023-08-20T05:59:06.015Z,22.4
2023-08-20T06:02:06.011Z,22.5
2023-08-20T06:05:05.952Z,22.5
2023-08-20T06:08:05.964Z,22.5
2023-08-20T06:11:05.951Z,22.6
2023-08-20T06:14:05.954Z,22.6
2023-08-20T06:17:05.957Z,22.6
2023-08-20T06:20:05.945Z,22.7
2023-08-20T06:23:05.948Z,22.8
2023-08-20T06:26:05.945Z,22.8
2023-08-20T06:29:05.942Z,22.9
2023-08-20T06:32:05.952Z,22.9
2023-08-20T06:35:05.944Z,22.9
2023-08-20T06:38:05.939Z,23
2023-08-20T06:41:05.958Z,23
2023-08-20T06:44:05.942Z,23.1
2023-08-20T06:47:05.936Z,23.1
2023-08-20T06:50:05.935Z,23.1
2023-08-20T06:53:05.950Z,23.1
2023-08-20T06:56:05.937Z,23.2
2023-08-20T06:59:05.940Z,23.2
2023-08-20T07:02:05.934Z,23.2
2023-08-20T07:05:05.951Z,23.2
2023-08-20T07:08:05.951Z,23.3
2023-08-20T07:11:05.933Z,23.3
2023-08-20T07:14:05.938Z,23.4
2023-08-20T07:17:05.932Z,23.5
2023-08-20T07:20:05.930Z,23.5
2023-08-20T07:23:05.932Z,23.5
2023-08-20T07:26:05.936Z,23.6
2023-08-20T07:32:05.943Z,23.6
2023-08-20T07:38:05.960Z,23.7
2023-08-20T07:41:05.949Z,23.7
2023-08-20T07:44:05.959Z,23.7
2023-08-20T07:47:05.944Z,23.7
2023-08-20T07:50:05.942Z,23.8
2023-08-20T07:53:05.957Z,23.8
2023-08-20T07:56:05.944Z,23.8
2023-08-20T07:59:05.971Z,23.8
2023-08-20T08:02:05.950Z,23.8
2023-08-20T08:05:05.951Z,23.9
2023-08-20T08:08:05.938Z,23.9
2023-08-20T08:11:05.942Z,23.9
2023-08-20T08:14:05.962Z,23.9
2023-08-20T08:17:05.942Z,23.9
2023-08-20T08:20:05.948Z,24
2023-08-20T08:23:05.944Z,24
2023-08-20T08:26:05.939Z,24
2023-08-20T08:29:05.948Z,24.1
2023-08-20T08:32:05.943Z,24.1
2023-08-20T08:35:05.941Z,24.1
2023-08-20T08:38:05.952Z,24.2
2023-08-20T08:41:05.938Z,24.2
2023-08-20T08:44:05.983Z,24.2
2023-08-20T08:47:05.938Z,24.3
2023-08-20T08:50:05.938Z,24.3
2023-08-20T08:53:05.953Z,24.3
2023-08-20T08:56:05.946Z,24.4
2023-08-20T08:59:05.941Z,24.5
2023-08-20T09:02:05.927Z,24.5
2023-08-20T09:05:05.948Z,24.5
2023-08-20T09:11:05.928Z,24.6
2023-08-20T09:14:05.937Z,24.7
2023-08-20T09:17:05.936Z,24.8
2023-08-20T09:20:05.936Z,24.8
2023-08-20T09:23:05.931Z,24.9
2023-08-20T09:26:05.928Z,24.9
2023-08-20T09:29:05.956Z,25
2023-08-20T09:32:05.930Z,25
2023-08-20T09:35:05.922Z,25.1
2023-08-20T09:41:05.923Z,25.2
2023-08-20T09:44:05.934Z,25.2
2023-08-20T09:50:05.916Z,25.4
2023-08-20T09:53:05.914Z,25.4
2023-08-20T09:56:05.918Z,25.5
2023-08-20T09:59:05.919Z,25.5
2023-08-20T10:02:05.927Z,25.6
2023-08-20T10:05:05.912Z,25.7
2023-08-20T10:08:05.918Z,25.8
2023-08-20T10:11:05.911Z,25.8
2023-08-20T10:14:05.917Z,25.9
2023-08-20T10:17:05.905Z,26
2023-08-20T10:20:05.933Z,26.1
2023-08-20T10:23:05.940Z,26.2
2023-08-20T10:26:05.958Z,26.3
2023-08-20T10:29:05.930Z,26.3
2023-08-20T10:32:05.927Z,26.4
2023-08-20T10:35:05.956Z,26.4
2023-08-20T10:38:05.955Z,26.5
2023-08-20T10:41:05.948Z,26.6
2023-08-20T10:44:05.948Z,26.6
2023-08-20T10:47:05.943Z,26.7
2023-08-20T10:50:05.948Z,26.7
2023-08-20T10:53:05.942Z,26.8
2023-08-20T10:56:05.958Z,26.9
2023-08-20T10:59:05.949Z,27
2023-08-20T11:02:05.978Z,27
2023-08-20T11:05:05.956Z,27.1
2023-08-20T11:08:05.947Z,27.2
2023-08-20T11:11:05.946Z,27.3
2023-08-20T11:14:05.940Z,27.3
2023-08-20T11:17:05.988Z,27.3
2023-08-20T11:20:08.604Z,27.3
2023-08-20T11:23:05.946Z,27.4
2023-08-20T11:26:06.032Z,27.4
2023-08-20T11:29:05.943Z,27.5
2023-08-20T11:32:05.947Z,27.5
2023-08-20T11:35:05.918Z,27.6
2023-08-20T11:38:05.957Z,27.6
2023-08-20T11:41:05.937Z,27.7
2023-08-20T11:44:05.961Z,27.8
2023-08-20T11:47:05.947Z,27.9
2023-08-20T11:53:05.950Z,28
2023-08-20T11:56:05.938Z,28.1
2023-08-20T11:59:05.933Z,28.1
2023-08-20T12:02:05.942Z,28.2
2023-08-20T12:05:05.962Z,28.3
2023-08-20T12:08:05.972Z,28.3
2023-08-20T12:11:05.927Z,28.4
2023-08-20T12:14:05.935Z,28.5
2023-08-20T12:17:05.936Z,28.5
2023-08-20T12:20:05.935Z,28.6
2023-08-20T12:23:05.928Z,28.6
2023-08-20T12:26:05.925Z,28.7
2023-08-20T12:29:05.925Z,28.8
2023-08-20T12:32:05.926Z,28.9
2023-08-20T12:35:05.921Z,28.9
2023-08-20T12:38:05.924Z,28.9
2023-08-20T12:44:05.931Z,29
2023-08-20T12:47:05.914Z,29
2023-08-20T12:50:05.921Z,29
2023-08-20T12:53:05.918Z,29
2023-08-20T12:56:05.909Z,29.1
2023-08-20T12:59:05.921Z,29.1
2023-08-20T13:02:05.958Z,29.1
2023-08-20T13:05:05.919Z,29.1
2023-08-20T13:08:05.920Z,29.2
2023-08-20T13:11:05.913Z,29.2
2023-08-20T13:14:05.916Z,29.2
2023-08-20T13:17:05.919Z,29.3
2023-08-20T13:20:05.910Z,29.3
2023-08-20T13:23:05.906Z,29.4
2023-08-20T13:26:06.392Z,29.4
2023-08-20T13:29:05.897Z,29.4
2023-08-20T13:32:05.916Z,29.4
2023-08-20T13:35:05.916Z,29.5
2023-08-20T13:41:05.947Z,29.6
2023-08-20T13:44:06.011Z,29.6
2023-08-20T13:47:05.902Z,29.6
2023-08-20T13:50:06.012Z,29.6
2023-08-20T13:59:05.901Z,29.6
2023-08-20T14:02:05.897Z,29.6
2023-08-20T14:05:05.905Z,29.6
2023-08-20T14:08:05.903Z,29.6
2023-08-20T14:11:05.902Z,29.7
2023-08-20T14:14:05.908Z,29.7
2023-08-20T14:17:05.902Z,29.7
2023-08-20T14:20:05.898Z,29.7
2023-08-20T14:23:05.903Z,29.7
2023-08-20T14:26:05.891Z,29.7
2023-08-20T14:29:05.916Z,29.6
2023-08-20T14:32:05.904Z,29.6
2023-08-20T14:35:05.895Z,29.6
2023-08-20T14:38:05.894Z,29.6
2023-08-20T14:41:05.885Z,29.6
2023-08-20T14:44:05.899Z,29.6
2023-08-20T14:47:06.040Z,29.6
2023-08-20T14:50:05.905Z,29.5
2023-08-20T14:53:05.887Z,29.5
2023-08-20T14:56:05.892Z,29.6
2023-08-20T14:59:05.883Z,29.5
2023-08-20T15:02:05.907Z,29.5
2023-08-20T15:05:05.889Z,29.5
2023-08-20T15:08:05.882Z,29.5
2023-08-20T15:11:05.882Z,29.5
2023-08-20T15:14:05.876Z,29.5
2023-08-20T15:17:05.884Z,29.5
2023-08-20T15:20:05.887Z,29.5
2023-08-20T15:23:05.880Z,29.5
2023-08-20T15:29:05.889Z,29.4
2023-08-20T15:32:05.886Z,29.4
2023-08-20T15:35:05.888Z,29.4
2023-08-20T15:38:05.871Z,29.3
2023-08-20T15:44:05.870Z,29.3
2023-08-20T15:47:05.868Z,29.2
2023-08-20T15:50:05.873Z,29.1
2023-08-20T15:53:05.873Z,29.1
2023-08-20T15:56:05.869Z,29.1
2023-08-20T15:59:05.870Z,29
2023-08-20T16:02:05.932Z,29
2023-08-20T16:05:07.963Z,29
2023-08-20T16:08:05.867Z,29
2023-08-20T16:11:05.878Z,28.9
2023-08-20T16:14:05.889Z,28.9
2023-08-20T16:17:05.855Z,28.8
2023-08-20T16:20:05.863Z,28.8
2023-08-20T16:23:05.869Z,28.8
2023-08-20T16:26:05.856Z,28.8
2023-08-20T16:29:05.874Z,28.8
2023-08-20T16:35:05.869Z,28.7
2023-08-20T16:38:05.856Z,28.7
2023-08-20T16:41:05.858Z,28.7
2023-08-20T16:44:05.855Z,28.6
2023-08-20T16:47:05.868Z,28.6
2023-08-20T16:50:05.858Z,28.6
2023-08-20T16:53:05.864Z,28.5
2023-08-20T16:59:05.867Z,28.5
2023-08-20T17:02:05.859Z,28.4
2023-08-20T17:05:05.861Z,28.4
2023-08-20T17:08:05.862Z,28.4
2023-08-20T17:11:05.860Z,28.4
2023-08-20T17:14:05.863Z,28.3
2023-08-20T17:17:05.860Z,28.3
2023-08-20T17:20:05.895Z,28.3
2023-08-20T17:23:05.854Z,28.3
2023-08-20T17:26:05.852Z,28.2
2023-08-20T17:32:05.865Z,28.2
2023-08-20T17:35:05.858Z,28.2
2023-08-20T17:38:05.849Z,28.1
2023-08-20T17:41:05.857Z,28
2023-08-20T17:44:05.865Z,28
2023-08-20T17:47:05.859Z,27.9
2023-08-20T17:50:05.858Z,27.9
2023-08-20T17:53:05.959Z,27.8
2023-08-20T17:56:05.845Z,27.7
2023-08-20T17:59:05.860Z,27.7
2023-08-20T18:02:05.879Z,27.7
2023-08-20T18:05:07.826Z,27.6
2023-08-20T18:08:05.842Z,27.5
2023-08-20T18:11:05.844Z,27.5
2023-08-20T18:14:05.860Z,27.4
2023-08-20T18:17:05.963Z,27.4
2023-08-20T18:20:05.854Z,27.4
2023-08-20T18:23:06.124Z,27.3
2023-08-20T18:26:05.840Z,27.2
2023-08-20T18:29:05.854Z,27.2
2023-08-20T18:32:05.838Z,27.1
2023-08-20T18:35:05.852Z,27.1
2023-08-20T18:38:05.837Z,27
2023-08-20T18:41:05.838Z,26.9
2023-08-20T18:44:05.850Z,26.8
2023-08-20T18:47:05.924Z,26.7
2023-08-20T18:50:05.852Z,26.7
2023-08-20T18:53:05.841Z,26.6
2023-08-20T18:56:07.261Z,26.6
2023-08-20T18:59:05.852Z,26.5
2023-08-20T19:02:05.847Z,26.5
2023-08-20T19:05:05.843Z,26.4
2023-08-20T19:08:05.846Z,26.4
2023-08-20T19:11:05.838Z,26.3
2023-08-20T19:14:05.843Z,26.3
2023-08-20T19:17:05.837Z,26.2
2023-08-20T19:20:05.841Z,26.2
2023-08-20T19:23:05.844Z,26.1
2023-08-20T19:26:05.831Z,26.1
2023-08-20T19:29:05.840Z,26
2023-08-20T19:32:05.829Z,25.9
2023-08-20T19:35:05.831Z,25.9
2023-08-20T19:38:05.835Z,25.8
2023-08-20T19:41:05.836Z,25.8
2023-08-20T19:44:05.824Z,25.7
2023-08-20T19:47:05.820Z,25.7
2023-08-20T19:50:05.824Z,25.7
2023-08-20T19:53:05.821Z,25.7
2023-08-20T19:56:05.820Z,25.6
2023-08-20T19:59:05.813Z,25.6
2023-08-20T20:02:05.828Z,25.6
2023-08-20T20:08:05.812Z,25.6
2023-08-20T20:11:05.803Z,25.6
2023-08-20T20:14:05.912Z,25.6
2023-08-20T20:17:05.814Z,25.6
2023-08-20T20:20:07.054Z,25.6
2023-08-20T20:23:05.804Z,25.5
2023-08-20T20:26:05.830Z,25.5
2023-08-20T20:29:05.816Z,25.6
2023-08-20T20:32:05.835Z,25.6
2023-08-20T20:35:05.864Z,25.6
2023-08-20T20:38:05.816Z,25.6
2023-08-20T20:41:05.798Z,25.5
2023-08-20T20:44:05.795Z,25.5
2023-08-20T20:47:05.860Z,25.5
2023-08-20T20:50:05.815Z,25.4
2023-08-20T20:53:05.831Z,25.4
2023-08-20T20:56:05.870Z,25.4
2023-08-20T20:59:05.841Z,25.3
2023-08-20T21:02:05.903Z,25.3
2023-08-20T21:05:05.835Z,25.2
2023-08-20T21:08:05.847Z,25.2
2023-08-20T21:11:05.852Z,25.1
2023-08-20T21:14:05.791Z,25.1
2023-08-20T21:17:05.864Z,25.1
2023-08-20T21:20:05.878Z,25
2023-08-20T21:23:05.861Z,25
2023-08-20T21:26:05.870Z,24.9
2023-08-20T21:29:05.810Z,24.9
2023-08-20T21:32:05.789Z,24.9
2023-08-20T21:35:05.909Z,24.8
2023-08-20T21:38:05.789Z,24.8
2023-08-20T21:41:05.788Z,24.8
2023-08-20T21:44:05.810Z,24.7
2023-08-20T21:47:05.792Z,24.7
2023-08-20T21:50:05.791Z,24.7
2023-08-20T21:53:05.792Z,24.7
2023-08-20T21:56:05.783Z,24.7
2023-08-20T21:59:05.798Z,24.7
2023-08-20T22:02:05.794Z,24.7
2023-08-20T22:05:05.782Z,24.7
2023-08-20T22:08:05.791Z,24.7
2023-08-20T22:11:06.626Z,24.7
2023-08-20T22:14:05.786Z,24.7
2023-08-20T22:20:05.781Z,24.7
2023-08-20T22:23:05.772Z,24.7
2023-08-20T22:26:05.776Z,24.7
2023-08-20T22:29:05.798Z,24.7
2023-08-20T22:32:05.786Z,24.7
2023-08-20T22:35:05.785Z,24.7
2023-08-20T22:38:05.785Z,24.6
2023-08-20T22:41:05.785Z,24.6
2023-08-20T22:44:05.807Z,24.6
2023-08-20T22:47:05.787Z,24.6
2023-08-20T22:50:05.778Z,24.6
2023-08-20T22:53:05.780Z,24.5
2023-08-20T22:56:05.804Z,24.5
2023-08-20T22:59:05.791Z,24.5
2023-08-20T23:02:05.784Z,24.5
2023-08-20T23:05:05.784Z,24.5
2023-08-20T23:08:05.775Z,24.4
2023-08-20T23:11:05.775Z,24.4
2023-08-20T23:14:05.787Z,24.4
2023-08-20T23:17:05.831Z,24.4
2023-08-20T23:20:05.780Z,24.4
2023-08-20T23:23:05.773Z,24.3
2023-08-20T23:26:05.774Z,24.3
2023-08-20T23:29:05.788Z,24.3
2023-08-20T23:32:05.773Z,24.3
2023-08-20T23:35:05.777Z,24.3
2023-08-20T23:38:05.770Z,24.2
2023-08-20T23:41:05.782Z,24.2
2023-08-20T23:44:05.808Z,24.2
2023-08-20T23:47:05.791Z,24.2
2023-08-20T23:50:05.777Z,24.2
2023-08-20T23:53:05.832Z,24.2
2023-08-20T23:56:05.767Z,24.2
2023-08-20T23:59:05.801Z,24.1
